KPVW/PVW METAR and TAF weather

Enter ICAO airport designator
Station Type Date Time Source
KPVW METAR 2019/04/24 16:35 UTC NOAA

KPVW 241635Z AUTO 34007KT 10SM CLR 14/06 A3000 RMK AO2 T01380063


Station Type Date Time Source
KPVW Decoded METAR 2019/04/24 16:35 UTC NOAA

Plainview, Hale County Airport, TX, United States (KPVW) 34-10-05N 101-43-02W
Apr 24, 2019 - 12:35 PM EDT / 2019.04.24 1635 UTC
Wind: from the NNW (340 degrees) at 8 MPH (7 KT):0
Visibility: 10 mile(s):0
Sky conditions: clear
Temperature: 56.8 F (13.8 C)
Dew Point: 43.3 F (6.3 C)
Relative Humidity: 60%
Pressure (altimeter): 30 in. Hg (1015 hPa)
ob: KPVW 241635Z AUTO 34007KT 10SM CLR 14/06 A3000 RMK AO2 T01380063
cycle: 16

Station Type Date Time Source
KPVW TAF 2019/04/24 12:22 UTC NOAA

TAF KPVW 241120Z 2412/2512 VRB05KT P6SM SCT250

Example: see airport list